createdAt,value
2022-09-16T00:00:45.380Z,73.30
2022-09-16T00:03:47.770Z,72.54
2022-09-16T00:06:50.009Z,74.29
2022-09-16T00:09:52.145Z,73.59
2022-09-16T00:12:54.188Z,74.25
2022-09-16T00:15:56.464Z,74.55
2022-09-16T00:19:00.772Z,74.95
2022-09-16T00:22:03.103Z,74.79
2022-09-16T00:25:05.761Z,74.67
2022-09-16T00:28:07.864Z,74.73
2022-09-16T00:31:10.254Z,75.26
2022-09-16T00:34:12.347Z,74.32
2022-09-16T00:37:14.414Z,74.67
2022-09-16T00:40:16.625Z,74.81
2022-09-16T00:43:19.337Z,73.93
2022-09-16T00:46:34.699Z,74.22
2022-09-16T00:49:36.831Z,73.67
2022-09-16T00:52:39.736Z,73.75
2022-09-16T00:55:41.792Z,74.47
2022-09-16T00:58:51.257Z,75.33
2022-09-16T01:01:54.623Z,74.42
2022-09-16T01:05:17.731Z,74.47
2022-09-16T01:08:19.789Z,74.21
2022-09-16T01:11:21.876Z,75.88
2022-09-16T01:14:42.918Z,75.30
2022-09-16T01:17:54.288Z,76.26
2022-09-16T01:21:15.450Z,76.98
2022-09-16T01:24:41.215Z,77.36
2022-09-16T01:28:19.929Z,77.47
2022-09-16T01:31:50.301Z,77.91
2022-09-16T01:35:11.773Z,79.04
2022-09-16T01:38:30.432Z,78.68
2022-09-16T01:42:08.804Z,78.91
2022-09-16T01:45:26.891Z,78.80
2022-09-16T01:48:44.513Z,78.47
2022-09-16T01:52:21.397Z,77.32
2022-09-16T01:56:00.853Z,77.02
2022-09-16T01:59:18.236Z,77.15
2022-09-16T02:02:23.475Z,75.44
2022-09-16T02:05:49.530Z,76.58
2022-09-16T02:08:57.926Z,75.21
2022-09-16T02:12:05.509Z,75.09
2022-09-16T02:15:09.683Z,74.72
2022-09-16T02:18:13.608Z,73.98
2022-09-16T02:21:16.211Z,74.57
2022-09-16T02:24:19.847Z,74.65
2022-09-16T02:27:22.267Z,74.84
2022-09-16T02:30:24.348Z,74.50
2022-09-16T02:33:49.242Z,75.28
2022-09-16T02:36:56.427Z,75.10
2022-09-16T02:40:02.395Z,75.16
2022-09-16T02:43:05.384Z,75.50
2022-09-16T02:46:29.421Z,75.27
2022-09-16T02:49:44.147Z,76.18
2022-09-16T02:53:21.616Z,76.92
2022-09-16T02:56:29.830Z,76.02
2022-09-16T02:59:31.938Z,76.71
2022-09-16T03:02:34.873Z,77.21
2022-09-16T03:06:08.924Z,77.75
2022-09-16T03:09:15.179Z,78.29
2022-09-16T03:12:34.604Z,77.79
2022-09-16T03:16:10.263Z,78.26
2022-09-16T03:20:12.088Z,76.90
2022-09-16T03:23:49.572Z,75.53
2022-09-16T03:27:19.144Z,75.51
2022-09-16T03:30:21.234Z,76.13
2022-09-16T03:33:38.006Z,76.64
2022-09-16T03:36:44.415Z,77.21
2022-09-16T03:39:56.126Z,77.29
2022-09-16T03:42:58.349Z,77.02
2022-09-16T03:46:00.577Z,76.08
2022-09-16T03:49:03.070Z,77.29
2022-09-16T03:52:05.701Z,76.60
2022-09-16T03:55:08.791Z,76.95
2022-09-16T03:58:10.907Z,76.93
2022-09-16T04:01:14.356Z,76.38
2022-09-16T04:04:16.435Z,76.96
2022-09-16T04:07:18.517Z,76.21
2022-09-16T04:10:20.661Z,76.76
2022-09-16T04:13:22.804Z,76.67
2022-09-16T04:16:25.419Z,76.48
2022-09-16T04:19:27.530Z,76.88
2022-09-16T04:22:30.764Z,77.73
2022-09-16T04:25:33.839Z,77.17
2022-09-16T04:28:35.919Z,77.77
2022-09-16T04:31:38.090Z,77.74
2022-09-16T04:34:40.226Z,77.81
2022-09-16T04:37:42.327Z,78.18
2022-09-16T04:40:44.394Z,77.33
2022-09-16T04:43:47.137Z,76.93
2022-09-16T04:46:49.230Z,76.79
2022-09-16T04:49:51.385Z,76.09
2022-09-16T04:52:53.530Z,75.56
2022-09-16T04:56:05.220Z,75.40
2022-09-16T04:59:07.319Z,74.84
2022-09-16T05:02:09.478Z,74.94
2022-09-16T05:05:12.174Z,75.66
2022-09-16T05:08:14.365Z,75.04
2022-09-16T05:11:24.720Z,74.65
2022-09-16T05:14:27.503Z,75.66
2022-09-16T05:17:51.298Z,74.68
2022-09-16T05:21:01.171Z,75.25
2022-09-16T05:24:05.225Z,75.20
2022-09-16T05:27:07.274Z,75.00
2022-09-16T05:30:10.477Z,76.23
2022-09-16T05:33:12.620Z,75.77
2022-09-16T05:36:17.063Z,75.58
2022-09-16T05:39:24.006Z,75.68
2022-09-16T05:42:26.980Z,76.09
2022-09-16T05:45:32.349Z,74.93
2022-09-16T05:48:35.309Z,75.75
2022-09-16T05:51:38.571Z,74.72
2022-09-16T05:54:40.643Z,74.83
2022-09-16T05:57:42.684Z,74.69
2022-09-16T06:00:45.148Z,74.27
2022-09-16T06:03:48.367Z,75.31
2022-09-16T06:06:50.527Z,74.74
2022-09-16T06:09:53.096Z,74.90
2022-09-16T06:16:15.008Z,75.08
2022-09-16T06:19:18.102Z,73.91
2022-09-16T06:22:20.154Z,73.78
2022-09-16T06:25:22.272Z,73.96
2022-09-16T06:28:24.348Z,73.51
2022-09-16T06:31:27.579Z,73.66
2022-09-16T06:34:29.931Z,73.71
2022-09-16T06:37:32.074Z,73.34
2022-09-16T06:40:34.232Z,72.48
2022-09-16T06:43:36.524Z,73.14
2022-09-16T06:46:38.841Z,72.80
2022-09-16T06:49:40.908Z,72.54
2022-09-16T06:52:43.047Z,72.75
2022-09-16T06:55:45.128Z,71.67
2022-09-16T06:58:49.920Z,71.66
2022-09-16T07:01:52.959Z,71.08
2022-09-16T07:04:55.169Z,70.45
2022-09-16T07:07:58.458Z,69.96
2022-09-16T07:11:05.469Z,69.62
2022-09-16T07:14:09.428Z,69.34
2022-09-16T07:17:11.544Z,69.42
2022-09-16T07:20:13.631Z,68.90
2022-09-16T07:23:15.719Z,67.75
2022-09-16T07:26:23.179Z,66.83
2022-09-16T07:29:25.352Z,67.48
2022-09-16T07:32:27.420Z,67.46
2022-09-16T07:35:29.556Z,68.41
2022-09-16T07:38:31.820Z,68.54
2022-09-16T07:41:36.647Z,68.95
2022-09-16T07:44:38.704Z,69.17
2022-09-16T07:47:40.787Z,68.78
2022-09-16T07:50:42.869Z,67.99
2022-09-16T07:53:45.355Z,68.03
2022-09-16T07:56:47.540Z,67.47
2022-09-16T07:59:50.155Z,67.95
2022-09-16T08:02:57.805Z,67.12
2022-09-16T08:06:22.342Z,67.22
2022-09-16T08:09:37.620Z,66.96
2022-09-16T08:12:40.915Z,65.87
2022-09-16T08:15:42.952Z,65.52
2022-09-16T08:18:46.600Z,67.36
2022-09-16T08:21:48.717Z,66.55
2022-09-16T08:24:50.758Z,65.58
2022-09-16T08:27:55.607Z,65.74
2022-09-16T08:37:41.440Z,65.60
2022-09-16T08:40:44.920Z,65.25
2022-09-16T08:44:01.697Z,64.61
2022-09-16T08:47:38.460Z,63.95
2022-09-16T08:50:42.360Z,64.89
2022-09-16T08:54:06.673Z,64.39
2022-09-16T08:57:17.542Z,64.10
2022-09-16T09:00:20.260Z,63.23
2022-09-16T09:03:37.961Z,63.30
2022-09-16T09:07:01.412Z,63.25
2022-09-16T09:10:18.515Z,60.99
2022-09-16T09:13:38.531Z,60.39
2022-09-16T09:17:04.838Z,59.38
2022-09-16T09:20:12.658Z,59.28
2022-09-16T09:23:40.476Z,60.08
2022-09-16T09:27:17.155Z,57.84
2022-09-16T09:30:28.529Z,56.33
2022-09-16T09:33:47.088Z,56.53
2022-09-16T09:37:04.990Z,56.09
2022-09-16T09:40:19.544Z,55.46
2022-09-16T09:43:53.407Z,58.01
2022-09-16T09:46:59.285Z,58.36
2022-09-16T09:50:36.576Z,60.20
2022-09-16T09:53:47.096Z,58.24
2022-09-16T09:56:49.315Z,57.76
2022-09-16T10:00:00.889Z,56.38
2022-09-16T10:03:11.791Z,56.72
2022-09-16T10:06:13.946Z,56.84
2022-09-16T10:09:16.355Z,55.69
2022-09-16T10:12:31.844Z,55.60
2022-09-16T10:15:35.109Z,58.34
2022-09-16T10:18:37.210Z,56.76
2022-09-16T10:22:19.319Z,55.18
2022-09-16T10:25:25.174Z,56.35
2022-09-16T10:28:28.374Z,54.78
2022-09-16T10:31:36.727Z,52.55
2022-09-16T10:34:40.185Z,52.32
2022-09-16T10:37:48.151Z,53.87
2022-09-16T10:41:14.358Z,51.51
2022-09-16T10:44:25.212Z,51.66
2022-09-16T10:47:32.387Z,52.33
2022-09-16T10:50:34.498Z,50.50
2022-09-16T10:53:43.669Z,47.64
2022-09-16T10:56:51.148Z,46.15
2022-09-16T11:00:07.372Z,47.39
2022-09-16T11:03:37.006Z,50.23
2022-09-16T11:07:09.038Z,50.60
2022-09-16T11:10:38.731Z,50.63
2022-09-16T11:13:52.796Z,49.30
2022-09-16T11:17:57.848Z,47.07
2022-09-16T11:21:38.799Z,46.66
2022-09-16T11:25:14.131Z,46.06
2022-09-16T11:28:55.472Z,45.49
2022-09-16T11:32:35.968Z,45.20
2022-09-16T11:36:36.860Z,45.02
2022-09-16T11:39:57.461Z,45.28
2022-09-16T11:43:34.824Z,45.67
2022-09-16T11:47:16.760Z,46.72
2022-09-16T11:50:45.722Z,48.55
2022-09-16T11:54:02.706Z,48.26
2022-09-16T11:57:13.255Z,43.30
2022-09-16T12:00:18.478Z,44.55
2022-09-16T12:03:48.605Z,46.10
2022-09-16T12:07:10.150Z,47.98
2022-09-16T12:10:30.301Z,46.12
2022-09-16T12:13:37.319Z,44.05
2022-09-16T12:17:06.542Z,44.58
2022-09-16T12:20:19.395Z,45.26
2022-09-16T12:23:25.464Z,41.94
2022-09-16T12:26:33.399Z,41.33
2022-09-16T12:29:59.479Z,43.81
2022-09-16T12:33:38.993Z,45.47
2022-09-16T12:36:44.802Z,45.34
2022-09-16T12:39:49.857Z,43.02
2022-09-16T12:43:11.011Z,39.57
2022-09-16T12:46:59.823Z,41.78
2022-09-16T12:50:54.576Z,37.64
2022-09-16T12:54:00.836Z,42.05
2022-09-16T12:57:47.108Z,42.58
2022-09-16T13:01:24.724Z,45.39
2022-09-16T13:04:39.780Z,41.76
2022-09-16T13:07:41.867Z,40.25
2022-09-16T13:10:57.772Z,39.21
2022-09-16T13:14:14.248Z,40.53
2022-09-16T13:17:29.349Z,42.05
2022-09-16T13:20:39.395Z,43.25
2022-09-16T13:23:45.022Z,39.73
2022-09-16T13:26:47.413Z,37.67
2022-09-16T13:29:49.514Z,37.41
2022-09-16T13:32:51.445Z,40.53
2022-09-16T13:36:16.762Z,40.09
2022-09-16T13:39:31.413Z,36.93
2022-09-16T13:42:33.506Z,34.29
2022-09-16T13:45:41.072Z,37.17
2022-09-16T13:49:02.871Z,37.98
2022-09-16T13:52:28.096Z,43.04
2022-09-16T13:55:30.136Z,40.76
2022-09-16T13:58:59.287Z,38.44
2022-09-16T14:02:13.031Z,41.70
2022-09-16T14:05:46.229Z,41.28
2022-09-16T14:09:26.283Z,37.98
2022-09-16T14:13:11.039Z,35.86
2022-09-16T14:16:23.064Z,35.74
2022-09-16T14:19:32.514Z,35.77
2022-09-16T14:22:34.606Z,36.26
2022-09-16T14:25:37.016Z,40.28
2022-09-16T14:28:39.583Z,40.00
2022-09-16T14:31:45.323Z,42.24
2022-09-16T14:34:47.698Z,42.91
2022-09-16T14:37:56.582Z,43.38
2022-09-16T14:40:58.808Z,43.29
2022-09-16T14:44:19.051Z,43.02
2022-09-16T14:47:47.395Z,44.13
2022-09-16T14:50:52.596Z,44.07
2022-09-16T14:54:12.166Z,44.89
2022-09-16T14:57:23.046Z,44.66
2022-09-16T15:00:46.938Z,44.88
2022-09-16T15:04:03.926Z,32.32
2022-09-16T15:07:12.544Z,42.51
2022-09-16T15:10:30.295Z,41.95
2022-09-16T15:13:42.215Z,35.34
2022-09-16T15:16:51.190Z,41.33
2022-09-16T15:19:58.718Z,32.79
2022-09-16T15:23:02.830Z,33.12
2022-09-16T15:26:16.261Z,36.52
2022-09-16T15:29:18.331Z,42.54
2022-09-16T15:32:24.126Z,43.12
2022-09-16T15:35:27.400Z,47.20
2022-09-16T15:38:30.069Z,50.07
2022-09-16T15:41:32.310Z,54.04
2022-09-16T15:44:37.414Z,53.21
2022-09-16T15:47:54.731Z,50.25
2022-09-16T15:51:02.523Z,51.04
2022-09-16T15:54:14.449Z,50.27
2022-09-16T15:57:31.879Z,48.69
2022-09-16T16:00:57.640Z,38.96
2022-09-16T16:04:01.125Z,39.21
2022-09-16T16:07:05.265Z,38.03
2022-09-16T16:10:23.826Z,38.32
2022-09-16T16:13:25.897Z,39.10
2022-09-16T16:16:28.209Z,44.37
2022-09-16T16:19:30.550Z,37.96
2022-09-16T16:22:32.918Z,41.92
2022-09-16T16:25:35.143Z,43.51
2022-09-16T16:28:38.617Z,44.26
2022-09-16T16:31:40.898Z,39.69
2022-09-16T16:34:50.330Z,40.25
2022-09-16T16:37:52.425Z,37.19
2022-09-16T16:40:54.558Z,35.06
2022-09-16T16:43:56.620Z,39.52
2022-09-16T16:46:58.775Z,43.25
2022-09-16T16:50:01.730Z,47.58
2022-09-16T16:53:03.849Z,49.01
2022-09-16T16:56:15.194Z,49.94
2022-09-16T16:59:17.984Z,48.46
2022-09-16T17:02:20.204Z,42.12
2022-09-16T17:05:22.325Z,40.09
2022-09-16T17:08:24.432Z,38.77
2022-09-16T17:11:26.771Z,44.06
2022-09-16T17:14:30.230Z,48.75
2022-09-16T17:17:32.305Z,50.17
2022-09-16T17:20:34.375Z,50.57
2022-09-16T17:23:36.567Z,52.06
2022-09-16T17:26:39.742Z,53.05
2022-09-16T17:29:41.808Z,52.44
2022-09-16T17:32:43.875Z,52.09
2022-09-16T17:35:45.920Z,53.02
2022-09-16T17:38:49.218Z,53.52
2022-09-16T17:41:51.516Z,51.59
2022-09-16T17:44:53.665Z,51.17
2022-09-16T17:47:57.669Z,54.69
2022-09-16T17:50:59.900Z,54.98
2022-09-16T17:54:03.391Z,53.67
2022-09-16T17:57:05.478Z,53.53
2022-09-16T18:00:08.505Z,51.04
2022-09-16T18:03:16.510Z,50.42
2022-09-16T18:06:31.041Z,52.13
2022-09-16T18:09:33.146Z,55.56
2022-09-16T18:12:35.204Z,54.10
2022-09-16T18:15:37.330Z,56.18
2022-09-16T18:18:40.780Z,55.42
2022-09-16T18:21:42.847Z,55.25
2022-09-16T18:24:44.958Z,56.76
2022-09-16T18:27:47.209Z,55.23
2022-09-16T18:31:00.974Z,55.34
2022-09-16T18:34:03.218Z,56.46
2022-09-16T18:37:05.340Z,57.77
2022-09-16T18:40:08.634Z,56.41
2022-09-16T18:43:10.779Z,56.60
2022-09-16T18:46:26.164Z,60.29
2022-09-16T18:49:30.171Z,56.07
2022-09-16T18:52:32.271Z,57.25
2022-09-16T18:55:34.306Z,57.41
2022-09-16T18:58:36.343Z,57.36
2022-09-16T19:01:39.177Z,57.63
2022-09-16T19:04:42.829Z,56.95
2022-09-16T19:07:44.879Z,59.47
2022-09-16T19:10:47.784Z,63.95
2022-09-16T19:13:50.350Z,63.94
2022-09-16T19:16:53.193Z,62.87
2022-09-16T19:19:55.329Z,61.59
2022-09-16T19:22:57.396Z,60.64
2022-09-16T19:26:03.771Z,57.87
2022-09-16T19:29:06.967Z,61.09
2022-09-16T19:32:09.029Z,65.36
2022-09-16T19:35:11.206Z,65.97
2022-09-16T19:38:13.242Z,64.12
2022-09-16T19:41:15.839Z,62.09
2022-09-16T19:44:18.117Z,61.43
2022-09-16T19:47:20.208Z,61.34
2022-09-16T19:50:22.376Z,61.93
2022-09-16T19:53:24.443Z,63.73
2022-09-16T19:56:28.559Z,65.25
2022-09-16T19:59:30.639Z,62.51
2022-09-16T20:02:33.030Z,61.67
2022-09-16T20:05:35.360Z,62.45
2022-09-16T20:08:39.507Z,65.36
2022-09-16T20:11:44.738Z,65.02
2022-09-16T20:14:46.824Z,62.75
2022-09-16T20:17:48.887Z,61.92
2022-09-16T20:20:50.934Z,63.72
2022-09-16T20:23:53.672Z,63.49
2022-09-16T20:26:57.380Z,62.72
2022-09-16T20:29:59.481Z,61.17
2022-09-16T20:33:01.555Z,62.46
2022-09-16T20:36:11.774Z,62.42
2022-09-16T20:39:14.476Z,63.15
2022-09-16T20:42:16.835Z,62.32
2022-09-16T20:45:18.947Z,61.30
2022-09-16T20:48:21.048Z,61.69
2022-09-16T20:51:25.651Z,62.15
2022-09-16T20:54:27.743Z,62.09
2022-09-16T20:57:29.871Z,63.59
2022-09-16T21:00:32.956Z,63.08
2022-09-16T21:03:35.142Z,63.75
2022-09-16T21:06:37.413Z,63.87
2022-09-16T21:09:39.787Z,64.29
2022-09-16T21:12:41.895Z,64.15
2022-09-16T21:15:44.027Z,63.64
2022-09-16T21:18:46.177Z,63.12
2022-09-16T21:21:48.540Z,63.72
2022-09-16T21:24:50.726Z,64.23
2022-09-16T21:27:52.835Z,62.91
2022-09-16T21:31:02.478Z,62.68
2022-09-16T21:34:06.369Z,63.15
2022-09-16T21:37:08.484Z,62.94
2022-09-16T21:40:12.410Z,64.02
2022-09-16T21:43:14.524Z,64.46
2022-09-16T21:46:22.112Z,65.74
2022-09-16T21:49:25.712Z,65.68
2022-09-16T21:52:27.896Z,65.44
2022-09-16T21:55:30.611Z,64.75
2022-09-16T21:58:33.057Z,65.27
2022-09-16T22:01:35.585Z,64.00
2022-09-16T22:04:37.729Z,64.04
2022-09-16T22:07:39.795Z,64.18
2022-09-16T22:10:41.867Z,63.94
2022-09-16T22:13:43.917Z,63.81
2022-09-16T22:16:46.104Z,63.40
2022-09-16T22:19:48.207Z,62.99
2022-09-16T22:22:50.380Z,63.54
2022-09-16T22:25:52.486Z,63.34
2022-09-16T22:28:54.583Z,62.92
2022-09-16T22:31:56.629Z,62.30
2022-09-16T22:34:58.694Z,61.52
2022-09-16T22:38:00.878Z,61.79
2022-09-16T22:41:07.320Z,62.12
2022-09-16T22:44:09.515Z,62.26
2022-09-16T22:47:11.616Z,61.96
2022-09-16T22:50:13.796Z,62.27
2022-09-16T22:53:15.840Z,62.83
2022-09-16T22:56:20.791Z,62.35
2022-09-16T22:59:23.371Z,63.72
2022-09-16T23:02:25.497Z,62.93
2022-09-16T23:05:27.978Z,64.57
2022-09-16T23:08:30.771Z,64.19
2022-09-16T23:11:34.431Z,64.66
2022-09-16T23:14:37.038Z,65.08
2022-09-16T23:17:41.358Z,64.93
2022-09-16T23:20:43.445Z,64.63
2022-09-16T23:23:53.719Z,64.54
2022-09-16T23:26:55.923Z,64.33
2022-09-16T23:29:58.145Z,64.83
2022-09-16T23:33:00.170Z,65.29
2022-09-16T23:36:02.855Z,65.64
2022-09-16T23:39:06.503Z,65.45
2022-09-16T23:42:08.774Z,66.31
2022-09-16T23:45:11.090Z,66.60
2022-09-16T23:48:13.383Z,65.34
2022-09-16T23:51:15.423Z,66.07
2022-09-16T23:54:17.576Z,66.01
2022-09-16T23:57:19.642Z,65.25
